KAYS/AYS METAR and TAF weather

Enter ICAO airport designator
Station Type Date Time Source
KAYS METAR 2022/01/26 08:15 UTC NOAA

KAYS 260815Z AUTO 00000KT 10SM OVC070 10/09 A3008 RMK AO2 T00960090


Station Type Date Time Source
KAYS Decoded METAR 2022/01/26 08:15 UTC NOAA

Waycross / Ware County, Ga, GA, United States (KAYS) 31-15N 082-24W 46M
Jan 26, 2022 - 03:15 AM EST / 2022.01.26 0815 UTC
Wind: Calm:0
Visibility: 10 mile(s):0
Sky conditions: overcast
Temperature: 49.3 F (9.6 C)
Dew Point: 48.2 F (9.0 C)
Relative Humidity: 96%
Pressure (altimeter): 30.08 in. Hg (1018 hPa)
ob: KAYS 260815Z AUTO 00000KT 10SM OVC070 10/09 A3008 RMK AO2 T00960090
cycle: 8

Station Type Date Time Source
KAYS TAF UTC NOAA

Error!

Example: see airport list